sensor_id;sensor_type;location;lat;lon;timestamp;P1;durP1;ratioP1;P2;durP2;ratioP2
37483;SDS011;23337;52.212;9.926;2023-03-03T00:00:30;16.47;;;10.93;;
37483;SDS011;23337;52.212;9.926;2023-03-03T00:02:57;19.43;;;10.37;;
37483;SDS011;23337;52.212;9.926;2023-03-03T00:05:25;18.50;;;10.83;;
37483;SDS011;23337;52.212;9.926;2023-03-03T00:07:51;17.00;;;10.57;;
37483;SDS011;23337;52.212;9.926;2023-03-03T00:10:17;16.50;;;10.70;;
37483;SDS011;23337;52.212;9.926;2023-03-03T00:12:47;15.37;;;10.03;;
37483;SDS011;23337;52.212;9.926;2023-03-03T00:15:14;16.50;;;10.27;;
37483;SDS011;23337;52.212;9.926;2023-03-03T00:17:40;16.47;;;9.47;;
37483;SDS011;23337;52.212;9.926;2023-03-03T00:20:23;17.50;;;10.50;;
37483;SDS011;23337;52.212;9.926;2023-03-03T00:22:51;16.83;;;10.20;;
37483;SDS011;23337;52.212;9.926;2023-03-03T00:27:49;17.30;;;10.67;;
37483;SDS011;23337;52.212;9.926;2023-03-03T00:32:47;15.80;;;9.70;;
37483;SDS011;23337;52.212;9.926;2023-03-03T00:35:35;18.83;;;11.07;;
37483;SDS011;23337;52.212;9.926;2023-03-03T00:38:09;14.43;;;10.13;;
37483;SDS011;23337;52.212;9.926;2023-03-03T00:40:37;16.13;;;10.43;;
37483;SDS011;23337;52.212;9.926;2023-03-03T00:43:37;15.40;;;10.70;;
37483;SDS011;23337;52.212;9.926;2023-03-03T00:45:56;18.17;;;11.33;;
37483;SDS011;23337;52.212;9.926;2023-03-03T00:48:24;16.57;;;10.30;;
37483;SDS011;23337;52.212;9.926;2023-03-03T00:50:51;15.00;;;10.37;;
37483;SDS011;23337;52.212;9.926;2023-03-03T00:53:18;17.43;;;9.67;;
37483;SDS011;23337;52.212;9.926;2023-03-03T00:55:45;13.23;;;9.10;;
37483;SDS011;23337;52.212;9.926;2023-03-03T00:58:11;13.13;;;9.10;;
37483;SDS011;23337;52.212;9.926;2023-03-03T01:00:38;14.73;;;9.47;;
37483;SDS011;23337;52.212;9.926;2023-03-03T01:03:05;16.37;;;9.07;;
37483;SDS011;23337;52.212;9.926;2023-03-03T01:05:31;14.83;;;9.57;;
37483;SDS011;23337;52.212;9.926;2023-03-03T01:07:58;14.00;;;9.37;;
37483;SDS011;23337;52.212;9.926;2023-03-03T01:10:25;13.63;;;9.73;;
37483;SDS011;23337;52.212;9.926;2023-03-03T01:12:51;15.67;;;10.30;;
37483;SDS011;23337;52.212;9.926;2023-03-03T01:15:17;13.47;;;9.37;;
37483;SDS011;23337;52.212;9.926;2023-03-03T01:17:43;15.50;;;10.10;;
37483;SDS011;23337;52.212;9.926;2023-03-03T01:20:10;15.63;;;9.30;;
37483;SDS011;23337;52.212;9.926;2023-03-03T01:22:36;13.60;;;8.93;;
37483;SDS011;23337;52.212;9.926;2023-03-03T01:25:02;13.87;;;9.47;;
37483;SDS011;23337;52.212;9.926;2023-03-03T01:27:29;12.43;;;8.43;;
37483;SDS011;23337;52.212;9.926;2023-03-03T01:29:55;11.63;;;7.90;;
37483;SDS011;23337;52.212;9.926;2023-03-03T01:32:22;11.13;;;7.57;;
37483;SDS011;23337;52.212;9.926;2023-03-03T01:34:48;9.93;;;7.33;;
37483;SDS011;23337;52.212;9.926;2023-03-03T01:37:14;11.87;;;7.33;;
37483;SDS011;23337;52.212;9.926;2023-03-03T01:39:40;11.23;;;7.50;;
37483;SDS011;23337;52.212;9.926;2023-03-03T01:42:06;10.03;;;7.13;;
37483;SDS011;23337;52.212;9.926;2023-03-03T01:44:32;11.37;;;7.57;;
37483;SDS011;23337;52.212;9.926;2023-03-03T01:47:18;11.73;;;8.17;;
37483;SDS011;23337;52.212;9.926;2023-03-03T01:52:20;10.60;;;7.77;;
37483;SDS011;23337;52.212;9.926;2023-03-03T01:54:49;12.87;;;9.17;;
37483;SDS011;23337;52.212;9.926;2023-03-03T01:57:18;12.17;;;8.23;;
37483;SDS011;23337;52.212;9.926;2023-03-03T01:59:46;13.20;;;8.87;;
37483;SDS011;23337;52.212;9.926;2023-03-03T02:02:14;14.37;;;9.60;;
37483;SDS011;23337;52.212;9.926;2023-03-03T02:04:40;13.27;;;8.90;;
37483;SDS011;23337;52.212;9.926;2023-03-03T02:07:07;13.27;;;8.67;;
37483;SDS011;23337;52.212;9.926;2023-03-03T02:09:50;13.17;;;8.27;;
37483;SDS011;23337;52.212;9.926;2023-03-03T02:12:18;12.23;;;8.67;;
37483;SDS011;23337;52.212;9.926;2023-03-03T02:14:44;14.80;;;9.23;;
37483;SDS011;23337;52.212;9.926;2023-03-03T02:17:10;17.80;;;9.30;;
37483;SDS011;23337;52.212;9.926;2023-03-03T02:22:11;17.33;;;9.53;;
37483;SDS011;23337;52.212;9.926;2023-03-03T02:27:05;16.83;;;10.47;;
37483;SDS011;23337;52.212;9.926;2023-03-03T02:29:31;14.43;;;8.30;;
37483;SDS011;23337;52.212;9.926;2023-03-03T02:31:57;14.23;;;9.40;;
37483;SDS011;23337;52.212;9.926;2023-03-03T02:34:23;17.83;;;9.07;;
37483;SDS011;23337;52.212;9.926;2023-03-03T02:36:49;15.80;;;10.30;;
37483;SDS011;23337;52.212;9.926;2023-03-03T02:39:19;13.27;;;9.23;;
37483;SDS011;23337;52.212;9.926;2023-03-03T02:44:21;14.97;;;10.13;;
37483;SDS011;23337;52.212;9.926;2023-03-03T02:46:47;12.20;;;8.50;;
37483;SDS011;23337;52.212;9.926;2023-03-03T02:49:16;16.33;;;9.80;;
37483;SDS011;23337;52.212;9.926;2023-03-03T02:51:42;31.27;;;15.07;;
37483;SDS011;23337;52.212;9.926;2023-03-03T02:54:09;35.43;;;15.97;;
37483;SDS011;23337;52.212;9.926;2023-03-03T02:56:36;36.77;;;16.37;;
37483;SDS011;23337;52.212;9.926;2023-03-03T02:59:02;21.40;;;12.77;;
37483;SDS011;23337;52.212;9.926;2023-03-03T03:01:29;22.63;;;11.77;;
37483;SDS011;23337;52.212;9.926;2023-03-03T03:03:56;24.17;;;13.60;;
37483;SDS011;23337;52.212;9.926;2023-03-03T03:06:22;20.43;;;10.83;;
37483;SDS011;23337;52.212;9.926;2023-03-03T03:08:48;16.57;;;8.93;;
37483;SDS011;23337;52.212;9.926;2023-03-03T03:11:14;16.37;;;9.60;;
37483;SDS011;23337;52.212;9.926;2023-03-03T03:13:40;15.07;;;8.73;;
37483;SDS011;23337;52.212;9.926;2023-03-03T03:16:06;14.90;;;9.17;;
37483;SDS011;23337;52.212;9.926;2023-03-03T03:18:33;10.47;;;8.17;;
37483;SDS011;23337;52.212;9.926;2023-03-03T03:21:06;13.97;;;8.43;;
37483;SDS011;23337;52.212;9.926;2023-03-03T03:23:33;11.60;;;7.57;;
37483;SDS011;23337;52.212;9.926;2023-03-03T03:25:59;15.20;;;8.77;;
37483;SDS011;23337;52.212;9.926;2023-03-03T03:28:24;12.60;;;8.20;;
37483;SDS011;23337;52.212;9.926;2023-03-03T03:30:50;11.73;;;8.30;;
37483;SDS011;23337;52.212;9.926;2023-03-03T03:33:16;12.13;;;7.40;;
37483;SDS011;23337;52.212;9.926;2023-03-03T03:35:42;10.50;;;7.87;;
37483;SDS011;23337;52.212;9.926;2023-03-03T03:38:11;12.37;;;7.93;;
37483;SDS011;23337;52.212;9.926;2023-03-03T03:40:37;10.60;;;7.30;;
37483;SDS011;23337;52.212;9.926;2023-03-03T03:43:03;12.23;;;7.97;;
37483;SDS011;23337;52.212;9.926;2023-03-03T03:45:29;13.00;;;7.90;;
37483;SDS011;23337;52.212;9.926;2023-03-03T03:47:55;10.70;;;6.83;;
37483;SDS011;23337;52.212;9.926;2023-03-03T03:50:22;11.30;;;7.90;;
37483;SDS011;23337;52.212;9.926;2023-03-03T03:52:48;14.63;;;8.30;;
37483;SDS011;23337;52.212;9.926;2023-03-03T03:55:13;10.70;;;7.47;;
37483;SDS011;23337;52.212;9.926;2023-03-03T03:57:40;12.00;;;8.13;;
37483;SDS011;23337;52.212;9.926;2023-03-03T04:00:06;13.57;;;8.23;;
37483;SDS011;23337;52.212;9.926;2023-03-03T04:02:33;12.00;;;7.53;;
37483;SDS011;23337;52.212;9.926;2023-03-03T04:04:59;12.80;;;8.30;;
37483;SDS011;23337;52.212;9.926;2023-03-03T04:07:25;12.80;;;7.90;;
37483;SDS011;23337;52.212;9.926;2023-03-03T04:09:51;13.20;;;8.53;;
37483;SDS011;23337;52.212;9.926;2023-03-03T04:12:17;14.83;;;9.27;;
37483;SDS011;23337;52.212;9.926;2023-03-03T04:14:43;12.27;;;8.77;;
37483;SDS011;23337;52.212;9.926;2023-03-03T04:17:14;13.70;;;8.70;;
37483;SDS011;23337;52.212;9.926;2023-03-03T04:19:41;13.53;;;8.97;;
37483;SDS011;23337;52.212;9.926;2023-03-03T04:22:06;13.93;;;9.30;;
37483;SDS011;23337;52.212;9.926;2023-03-03T04:24:32;11.03;;;7.57;;
37483;SDS011;23337;52.212;9.926;2023-03-03T04:26:59;16.50;;;9.37;;
37483;SDS011;23337;52.212;9.926;2023-03-03T04:29:25;12.20;;;8.73;;
37483;SDS011;23337;52.212;9.926;2023-03-03T04:31:51;13.70;;;8.07;;
37483;SDS011;23337;52.212;9.926;2023-03-03T04:34:17;13.33;;;7.60;;
37483;SDS011;23337;52.212;9.926;2023-03-03T04:36:43;14.83;;;8.43;;
37483;SDS011;23337;52.212;9.926;2023-03-03T04:39:09;13.00;;;8.93;;
37483;SDS011;23337;52.212;9.926;2023-03-03T04:41:35;12.53;;;8.03;;
37483;SDS011;23337;52.212;9.926;2023-03-03T04:44:01;13.43;;;8.87;;
37483;SDS011;23337;52.212;9.926;2023-03-03T04:46:27;20.20;;;11.03;;
37483;SDS011;23337;52.212;9.926;2023-03-03T04:48:52;20.73;;;11.87;;
37483;SDS011;23337;52.212;9.926;2023-03-03T04:51:19;20.40;;;11.00;;
37483;SDS011;23337;52.212;9.926;2023-03-03T04:53:45;17.20;;;10.77;;
37483;SDS011;23337;52.212;9.926;2023-03-03T04:56:11;18.70;;;11.17;;
37483;SDS011;23337;52.212;9.926;2023-03-03T04:58:37;17.13;;;10.47;;
37483;SDS011;23337;52.212;9.926;2023-03-03T05:01:03;13.80;;;8.23;;
37483;SDS011;23337;52.212;9.926;2023-03-03T05:03:29;18.13;;;11.00;;
37483;SDS011;23337;52.212;9.926;2023-03-03T05:05:55;19.83;;;11.50;;
37483;SDS011;23337;52.212;9.926;2023-03-03T05:08:21;16.20;;;11.10;;
37483;SDS011;23337;52.212;9.926;2023-03-03T05:10:50;21.27;;;11.70;;
37483;SDS011;23337;52.212;9.926;2023-03-03T05:13:16;18.77;;;11.23;;
37483;SDS011;23337;52.212;9.926;2023-03-03T05:15:42;19.47;;;11.13;;
37483;SDS011;23337;52.212;9.926;2023-03-03T05:18:08;19.57;;;11.83;;
37483;SDS011;23337;52.212;9.926;2023-03-03T05:20:35;20.23;;;11.50;;
37483;SDS011;23337;52.212;9.926;2023-03-03T05:23:01;19.50;;;10.83;;
37483;SDS011;23337;52.212;9.926;2023-03-03T05:25:27;19.60;;;10.67;;
37483;SDS011;23337;52.212;9.926;2023-03-03T05:27:53;21.00;;;11.07;;
37483;SDS011;23337;52.212;9.926;2023-03-03T05:30:19;22.93;;;11.63;;
37483;SDS011;23337;52.212;9.926;2023-03-03T05:32:45;19.30;;;11.53;;
37483;SDS011;23337;52.212;9.926;2023-03-03T05:35:11;23.27;;;12.67;;
37483;SDS011;23337;52.212;9.926;2023-03-03T05:37:37;23.03;;;12.67;;
37483;SDS011;23337;52.212;9.926;2023-03-03T05:40:06;22.23;;;11.87;;
37483;SDS011;23337;52.212;9.926;2023-03-03T05:42:33;19.97;;;12.17;;
37483;SDS011;23337;52.212;9.926;2023-03-03T05:44:58;21.27;;;12.63;;
37483;SDS011;23337;52.212;9.926;2023-03-03T05:47:24;22.23;;;12.40;;
37483;SDS011;23337;52.212;9.926;2023-03-03T05:49:50;23.30;;;13.17;;
37483;SDS011;23337;52.212;9.926;2023-03-03T05:52:16;23.97;;;12.30;;
37483;SDS011;23337;52.212;9.926;2023-03-03T05:54:42;23.60;;;12.67;;
37483;SDS011;23337;52.212;9.926;2023-03-03T05:57:08;21.90;;;12.30;;
37483;SDS011;23337;52.212;9.926;2023-03-03T05:59:34;25.00;;;13.63;;
37483;SDS011;23337;52.212;9.926;2023-03-03T06:02:00;26.30;;;12.87;;
37483;SDS011;23337;52.212;9.926;2023-03-03T06:04:26;23.93;;;13.30;;
37483;SDS011;23337;52.212;9.926;2023-03-03T06:06:52;25.07;;;14.90;;
37483;SDS011;23337;52.212;9.926;2023-03-03T06:09:18;22.27;;;12.57;;
37483;SDS011;23337;52.212;9.926;2023-03-03T06:11:45;24.00;;;13.57;;
37483;SDS011;23337;52.212;9.926;2023-03-03T06:14:11;25.07;;;13.93;;
37483;SDS011;23337;52.212;9.926;2023-03-03T06:16:36;19.63;;;12.03;;
37483;SDS011;23337;52.212;9.926;2023-03-03T06:19:03;24.60;;;12.77;;
37483;SDS011;23337;52.212;9.926;2023-03-03T06:21:29;26.80;;;14.47;;
37483;SDS011;23337;52.212;9.926;2023-03-03T06:23:55;23.50;;;13.17;;
37483;SDS011;23337;52.212;9.926;2023-03-03T06:26:21;18.20;;;10.73;;
37483;SDS011;23337;52.212;9.926;2023-03-03T06:28:47;23.67;;;13.10;;
37483;SDS011;23337;52.212;9.926;2023-03-03T06:31:14;27.47;;;12.97;;
37483;SDS011;23337;52.212;9.926;2023-03-03T06:33:40;26.00;;;13.07;;
37483;SDS011;23337;52.212;9.926;2023-03-03T06:36:06;29.90;;;13.97;;
37483;SDS011;23337;52.212;9.926;2023-03-03T06:38:32;25.20;;;13.20;;
37483;SDS011;23337;52.212;9.926;2023-03-03T06:40:58;23.53;;;13.10;;
37483;SDS011;23337;52.212;9.926;2023-03-03T06:43:26;24.73;;;13.50;;
37483;SDS011;23337;52.212;9.926;2023-03-03T06:45:52;25.43;;;13.53;;
37483;SDS011;23337;52.212;9.926;2023-03-03T06:48:17;22.97;;;12.73;;
37483;SDS011;23337;52.212;9.926;2023-03-03T06:50:43;27.00;;;12.37;;
37483;SDS011;23337;52.212;9.926;2023-03-03T06:53:11;26.17;;;13.27;;
37483;SDS011;23337;52.212;9.926;2023-03-03T06:55:37;26.13;;;14.27;;
37483;SDS011;23337;52.212;9.926;2023-03-03T06:58:10;26.73;;;14.17;;
37483;SDS011;23337;52.212;9.926;2023-03-03T07:00:37;25.10;;;12.57;;
37483;SDS011;23337;52.212;9.926;2023-03-03T07:03:15;22.43;;;12.33;;
37483;SDS011;23337;52.212;9.926;2023-03-03T07:05:41;26.73;;;13.23;;
37483;SDS011;23337;52.212;9.926;2023-03-03T07:08:14;26.37;;;13.23;;
37483;SDS011;23337;52.212;9.926;2023-03-03T07:10:41;29.33;;;13.97;;
37483;SDS011;23337;52.212;9.926;2023-03-03T07:13:15;24.80;;;12.27;;
37483;SDS011;23337;52.212;9.926;2023-03-03T07:15:42;26.77;;;13.07;;
37483;SDS011;23337;52.212;9.926;2023-03-03T07:18:20;29.33;;;13.60;;
37483;SDS011;23337;52.212;9.926;2023-03-03T07:20:47;25.50;;;13.97;;
37483;SDS011;23337;52.212;9.926;2023-03-03T07:23:23;24.83;;;12.73;;
37483;SDS011;23337;52.212;9.926;2023-03-03T07:25:50;27.67;;;14.47;;
37483;SDS011;23337;52.212;9.926;2023-03-03T07:28:24;28.10;;;13.47;;
37483;SDS011;23337;52.212;9.926;2023-03-03T07:30:54;30.53;;;14.10;;
37483;SDS011;23337;52.212;9.926;2023-03-03T07:33:27;32.53;;;14.03;;
37483;SDS011;23337;52.212;9.926;2023-03-03T07:35:55;30.00;;;14.03;;
37483;SDS011;23337;52.212;9.926;2023-03-03T07:38:28;25.60;;;14.00;;
37483;SDS011;23337;52.212;9.926;2023-03-03T07:40:56;28.77;;;14.50;;
37483;SDS011;23337;52.212;9.926;2023-03-03T07:43:28;27.97;;;13.73;;
37483;SDS011;23337;52.212;9.926;2023-03-03T07:45:56;28.70;;;13.73;;
37483;SDS011;23337;52.212;9.926;2023-03-03T07:48:30;28.33;;;13.67;;
37483;SDS011;23337;52.212;9.926;2023-03-03T07:50:57;27.43;;;14.83;;
37483;SDS011;23337;52.212;9.926;2023-03-03T07:53:28;25.07;;;12.37;;
37483;SDS011;23337;52.212;9.926;2023-03-03T07:55:58;22.73;;;11.83;;
37483;SDS011;23337;52.212;9.926;2023-03-03T07:58:35;21.73;;;11.30;;
37483;SDS011;23337;52.212;9.926;2023-03-03T08:03:46;25.03;;;13.17;;
37483;SDS011;23337;52.212;9.926;2023-03-03T08:06:49;23.03;;;13.53;;
37483;SDS011;23337;52.212;9.926;2023-03-03T08:11:46;29.00;;;15.73;;
37483;SDS011;23337;52.212;9.926;2023-03-03T08:14:14;35.53;;;17.40;;
37483;SDS011;23337;52.212;9.926;2023-03-03T08:16:40;35.07;;;17.17;;
37483;SDS011;23337;52.212;9.926;2023-03-03T08:19:06;34.23;;;16.37;;
37483;SDS011;23337;52.212;9.926;2023-03-03T08:21:32;34.27;;;14.07;;
37483;SDS011;23337;52.212;9.926;2023-03-03T08:24:00;32.97;;;16.87;;
37483;SDS011;23337;52.212;9.926;2023-03-03T08:26:26;33.73;;;16.63;;
37483;SDS011;23337;52.212;9.926;2023-03-03T08:28:52;36.00;;;17.90;;
37483;SDS011;23337;52.212;9.926;2023-03-03T08:31:19;35.47;;;16.40;;
37483;SDS011;23337;52.212;9.926;2023-03-03T08:33:46;39.03;;;17.90;;
37483;SDS011;23337;52.212;9.926;2023-03-03T08:36:12;36.87;;;18.37;;
37483;SDS011;23337;52.212;9.926;2023-03-03T08:38:38;40.63;;;20.20;;
37483;SDS011;23337;52.212;9.926;2023-03-03T08:41:05;39.20;;;20.03;;
37483;SDS011;23337;52.212;9.926;2023-03-03T08:43:31;40.17;;;20.37;;
37483;SDS011;23337;52.212;9.926;2023-03-03T08:45:58;41.80;;;19.83;;
37483;SDS011;23337;52.212;9.926;2023-03-03T08:48:24;40.40;;;19.10;;
37483;SDS011;23337;52.212;9.926;2023-03-03T08:50:51;40.33;;;17.33;;
37483;SDS011;23337;52.212;9.926;2023-03-03T08:53:17;38.40;;;16.57;;
37483;SDS011;23337;52.212;9.926;2023-03-03T08:55:43;33.77;;;17.27;;
37483;SDS011;23337;52.212;9.926;2023-03-03T08:58:09;38.80;;;17.63;;
37483;SDS011;23337;52.212;9.926;2023-03-03T09:00:35;39.37;;;18.13;;
37483;SDS011;23337;52.212;9.926;2023-03-03T09:03:02;33.30;;;16.23;;
37483;SDS011;23337;52.212;9.926;2023-03-03T09:05:31;33.43;;;15.33;;
37483;SDS011;23337;52.212;9.926;2023-03-03T09:07:57;32.90;;;17.20;;
37483;SDS011;23337;52.212;9.926;2023-03-03T09:10:25;36.67;;;17.33;;
37483;SDS011;23337;52.212;9.926;2023-03-03T09:12:53;31.53;;;16.37;;
37483;SDS011;23337;52.212;9.926;2023-03-03T09:15:23;36.87;;;16.23;;
37483;SDS011;23337;52.212;9.926;2023-03-03T09:17:49;32.53;;;17.07;;
37483;SDS011;23337;52.212;9.926;2023-03-03T09:20:33;35.10;;;17.00;;
37483;SDS011;23337;52.212;9.926;2023-03-03T09:25:45;32.53;;;15.57;;
37483;SDS011;23337;52.212;9.926;2023-03-03T09:28:21;30.93;;;16.53;;
37483;SDS011;23337;52.212;9.926;2023-03-03T09:30:48;33.27;;;16.10;;
37483;SDS011;23337;52.212;9.926;2023-03-03T09:33:25;33.87;;;17.57;;
37483;SDS011;23337;52.212;9.926;2023-03-03T09:35:53;31.53;;;17.00;;
37483;SDS011;23337;52.212;9.926;2023-03-03T09:38:32;30.53;;;15.47;;
37483;SDS011;23337;52.212;9.926;2023-03-03T09:43:30;33.60;;;15.43;;
37483;SDS011;23337;52.212;9.926;2023-03-03T09:48:39;30.73;;;16.13;;
37483;SDS011;23337;52.212;9.926;2023-03-03T10:04:31;29.83;;;14.43;;
37483;SDS011;23337;52.212;9.926;2023-03-03T10:07:09;26.17;;;14.77;;
37483;SDS011;23337;52.212;9.926;2023-03-03T10:14:55;23.90;;;13.27;;
37483;SDS011;23337;52.212;9.926;2023-03-03T10:22:39;28.07;;;14.10;;
37483;SDS011;23337;52.212;9.926;2023-03-03T10:25:27;25.83;;;15.00;;
37483;SDS011;23337;52.212;9.926;2023-03-03T10:27:57;32.27;;;16.37;;
37483;SDS011;23337;52.212;9.926;2023-03-03T10:46:14;27.43;;;16.07;;
37483;SDS011;23337;52.212;9.926;2023-03-03T11:02:38;38.10;;;18.93;;
37483;SDS011;23337;52.212;9.926;2023-03-03T11:07:08;35.80;;;19.50;;
37483;SDS011;23337;52.212;9.926;2023-03-03T11:09:40;40.00;;;19.80;;
37483;SDS011;23337;52.212;9.926;2023-03-03T11:17:37;34.63;;;18.70;;
37483;SDS011;23337;52.212;9.926;2023-03-03T11:20:00;38.83;;;18.40;;
37483;SDS011;23337;52.212;9.926;2023-03-03T11:22:36;37.53;;;19.47;;
37483;SDS011;23337;52.212;9.926;2023-03-03T11:25:10;35.27;;;18.30;;
37483;SDS011;23337;52.212;9.926;2023-03-03T11:30:26;34.93;;;18.77;;
37483;SDS011;23337;52.212;9.926;2023-03-03T11:38:21;35.90;;;19.00;;
37483;SDS011;23337;52.212;9.926;2023-03-03T11:45:44;34.53;;;19.70;;
37483;SDS011;23337;52.212;9.926;2023-03-03T11:48:15;36.63;;;20.43;;
37483;SDS011;23337;52.212;9.926;2023-03-03T11:50:46;37.47;;;20.90;;
37483;SDS011;23337;52.212;9.926;2023-03-03T11:56:02;34.60;;;17.90;;
37483;SDS011;23337;52.212;9.926;2023-03-03T11:58:43;32.20;;;17.83;;
37483;SDS011;23337;52.212;9.926;2023-03-03T12:03:40;31.07;;;17.37;;
37483;SDS011;23337;52.212;9.926;2023-03-03T12:06:12;24.53;;;14.73;;
37483;SDS011;23337;52.212;9.926;2023-03-03T12:16:53;26.77;;;15.03;;
37483;SDS011;23337;52.212;9.926;2023-03-03T12:35:27;20.03;;;11.47;;
37483;SDS011;23337;52.212;9.926;2023-03-03T12:38:10;25.90;;;12.43;;
37483;SDS011;23337;52.212;9.926;2023-03-03T12:40:43;20.63;;;11.97;;
37483;SDS011;23337;52.212;9.926;2023-03-03T12:48:18;24.30;;;12.53;;
37483;SDS011;23337;52.212;9.926;2023-03-03T12:56:03;20.30;;;11.60;;
37483;SDS011;23337;52.212;9.926;2023-03-03T13:01:12;21.93;;;11.57;;
37483;SDS011;23337;52.212;9.926;2023-03-03T13:03:52;21.87;;;12.97;;
37483;SDS011;23337;52.212;9.926;2023-03-03T13:08:53;20.87;;;13.13;;
37483;SDS011;23337;52.212;9.926;2023-03-03T13:11:25;20.43;;;12.23;;
37483;SDS011;23337;52.212;9.926;2023-03-03T13:14:13;19.97;;;11.50;;
37483;SDS011;23337;52.212;9.926;2023-03-03T13:22:06;22.90;;;12.63;;
37483;SDS011;23337;52.212;9.926;2023-03-03T13:27:18;22.40;;;12.33;;
37483;SDS011;23337;52.212;9.926;2023-03-03T13:29:59;22.43;;;13.23;;
37483;SDS011;23337;52.212;9.926;2023-03-03T13:34:58;23.67;;;11.60;;
37483;SDS011;23337;52.212;9.926;2023-03-03T13:45:20;20.63;;;12.17;;
37483;SDS011;23337;52.212;9.926;2023-03-03T13:53:11;20.53;;;12.37;;
37483;SDS011;23337;52.212;9.926;2023-03-03T13:58:15;20.50;;;11.73;;
37483;SDS011;23337;52.212;9.926;2023-03-03T14:03:26;23.27;;;12.53;;
37483;SDS011;23337;52.212;9.926;2023-03-03T14:05:56;23.33;;;11.83;;
37483;SDS011;23337;52.212;9.926;2023-03-03T14:11:04;27.43;;;13.40;;
37483;SDS011;23337;52.212;9.926;2023-03-03T14:13:35;23.20;;;12.47;;
37483;SDS011;23337;52.212;9.926;2023-03-03T14:16:09;19.70;;;11.73;;
37483;SDS011;23337;52.212;9.926;2023-03-03T14:18:38;23.57;;;13.00;;
37483;SDS011;23337;52.212;9.926;2023-03-03T14:21:13;23.87;;;13.63;;
37483;SDS011;23337;52.212;9.926;2023-03-03T14:23:45;22.20;;;12.33;;
37483;SDS011;23337;52.212;9.926;2023-03-03T14:26:12;48.87;;;16.17;;
37483;SDS011;23337;52.212;9.926;2023-03-03T14:28:40;32.67;;;13.27;;
37483;SDS011;23337;52.212;9.926;2023-03-03T14:31:20;21.13;;;13.47;;
37483;SDS011;23337;52.212;9.926;2023-03-03T14:33:57;19.10;;;11.53;;
37483;SDS011;23337;52.212;9.926;2023-03-03T14:36:25;16.73;;;11.03;;
37483;SDS011;23337;52.212;9.926;2023-03-03T14:38:51;22.10;;;11.77;;
37483;SDS011;23337;52.212;9.926;2023-03-03T14:41:18;20.63;;;11.77;;
37483;SDS011;23337;52.212;9.926;2023-03-03T14:43:45;22.90;;;13.00;;
37483;SDS011;23337;52.212;9.926;2023-03-03T14:46:37;21.77;;;13.37;;
37483;SDS011;23337;52.212;9.926;2023-03-03T14:49:15;19.70;;;11.77;;
37483;SDS011;23337;52.212;9.926;2023-03-03T14:51:55;24.77;;;11.63;;
37483;SDS011;23337;52.212;9.926;2023-03-03T14:54:27;20.53;;;11.77;;
37483;SDS011;23337;52.212;9.926;2023-03-03T14:56:59;20.10;;;11.57;;
37483;SDS011;23337;52.212;9.926;2023-03-03T14:59:25;17.57;;;10.87;;
37483;SDS011;23337;52.212;9.926;2023-03-03T15:02:37;29.80;;;16.37;;
37483;SDS011;23337;52.212;9.926;2023-03-03T15:04:38;21.87;;;13.23;;
37483;SDS011;23337;52.212;9.926;2023-03-03T15:07:22;20.30;;;12.07;;
37483;SDS011;23337;52.212;9.926;2023-03-03T15:09:51;19.40;;;10.70;;
37483;SDS011;23337;52.212;9.926;2023-03-03T15:12:19;20.20;;;11.33;;
37483;SDS011;23337;52.212;9.926;2023-03-03T15:14:49;18.93;;;11.20;;
37483;SDS011;23337;52.212;9.926;2023-03-03T15:17:19;18.97;;;11.60;;
37483;SDS011;23337;52.212;9.926;2023-03-03T15:22:18;19.43;;;10.77;;
37483;SDS011;23337;52.212;9.926;2023-03-03T15:24:47;20.03;;;10.27;;
37483;SDS011;23337;52.212;9.926;2023-03-03T15:27:18;19.80;;;11.23;;
37483;SDS011;23337;52.212;9.926;2023-03-03T15:32:20;20.97;;;11.00;;
37483;SDS011;23337;52.212;9.926;2023-03-03T15:35:03;20.20;;;11.70;;
37483;SDS011;23337;52.212;9.926;2023-03-03T15:40:07;21.10;;;11.57;;
37483;SDS011;23337;52.212;9.926;2023-03-03T15:45:30;21.70;;;12.03;;
37483;SDS011;23337;52.212;9.926;2023-03-03T15:55:58;17.80;;;10.40;;
37483;SDS011;23337;52.212;9.926;2023-03-03T15:58:49;18.00;;;10.87;;
37483;SDS011;23337;52.212;9.926;2023-03-03T16:01:26;23.30;;;13.20;;
37483;SDS011;23337;52.212;9.926;2023-03-03T16:03:55;21.93;;;12.20;;
37483;SDS011;23337;52.212;9.926;2023-03-03T16:14:35;21.67;;;13.03;;
37483;SDS011;23337;52.212;9.926;2023-03-03T16:17:12;27.60;;;14.50;;
37483;SDS011;23337;52.212;9.926;2023-03-03T16:23:13;23.47;;;15.47;;
37483;SDS011;23337;52.212;9.926;2023-03-03T16:32:50;29.97;;;16.23;;
37483;SDS011;23337;52.212;9.926;2023-03-03T16:35:22;28.73;;;15.13;;
37483;SDS011;23337;52.212;9.926;2023-03-03T16:37:59;27.47;;;15.90;;
37483;SDS011;23337;52.212;9.926;2023-03-03T16:40:29;26.30;;;15.70;;
37483;SDS011;23337;52.212;9.926;2023-03-03T16:45:41;31.30;;;15.83;;
37483;SDS011;23337;52.212;9.926;2023-03-03T16:50:45;33.83;;;17.03;;
37483;SDS011;23337;52.212;9.926;2023-03-03T16:53:17;31.03;;;17.00;;
37483;SDS011;23337;52.212;9.926;2023-03-03T16:56:01;49.07;;;23.40;;
37483;SDS011;23337;52.212;9.926;2023-03-03T17:03:34;52.50;;;26.30;;
37483;SDS011;23337;52.212;9.926;2023-03-03T17:23:48;51.23;;;25.80;;
37483;SDS011;23337;52.212;9.926;2023-03-03T17:29:01;41.27;;;21.57;;
37483;SDS011;23337;52.212;9.926;2023-03-03T17:34:31;40.50;;;20.33;;
37483;SDS011;23337;52.212;9.926;2023-03-03T17:39:37;39.73;;;19.83;;
37483;SDS011;23337;52.212;9.926;2023-03-03T17:44:59;34.33;;;17.80;;
37483;SDS011;23337;52.212;9.926;2023-03-03T17:50:08;28.60;;;17.53;;
37483;SDS011;23337;52.212;9.926;2023-03-03T18:07:44;54.50;;;34.50;;
37483;SDS011;23337;52.212;9.926;2023-03-03T18:15:32;58.50;;;32.03;;
37483;SDS011;23337;52.212;9.926;2023-03-03T18:20:38;47.73;;;25.87;;
37483;SDS011;23337;52.212;9.926;2023-03-03T18:25:51;43.60;;;24.87;;
37483;SDS011;23337;52.212;9.926;2023-03-03T18:28:20;49.00;;;26.23;;
37483;SDS011;23337;52.212;9.926;2023-03-03T18:30:55;53.70;;;29.13;;
37483;SDS011;23337;52.212;9.926;2023-03-03T18:33:34;56.43;;;27.50;;
37483;SDS011;23337;52.212;9.926;2023-03-03T18:38:40;73.47;;;35.50;;
37483;SDS011;23337;52.212;9.926;2023-03-03T18:41:10;48.30;;;26.87;;
37483;SDS011;23337;52.212;9.926;2023-03-03T18:43:40;48.53;;;26.07;;
37483;SDS011;23337;52.212;9.926;2023-03-03T18:49:03;46.43;;;24.37;;
37483;SDS011;23337;52.212;9.926;2023-03-03T18:54:57;45.53;;;22.97;;
37483;SDS011;23337;52.212;9.926;2023-03-03T19:02:17;43.47;;;24.10;;
37483;SDS011;23337;52.212;9.926;2023-03-03T19:04:50;42.50;;;24.27;;
37483;SDS011;23337;52.212;9.926;2023-03-03T19:07:28;50.57;;;25.27;;
37483;SDS011;23337;52.212;9.926;2023-03-03T19:10:01;55.80;;;28.27;;
37483;SDS011;23337;52.212;9.926;2023-03-03T19:12:49;45.47;;;24.53;;
37483;SDS011;23337;52.212;9.926;2023-03-03T19:17:55;42.67;;;23.33;;
37483;SDS011;23337;52.212;9.926;2023-03-03T19:20:23;50.37;;;24.57;;
37483;SDS011;23337;52.212;9.926;2023-03-03T19:22:51;47.57;;;22.47;;
37483;SDS011;23337;52.212;9.926;2023-03-03T19:25:20;41.80;;;21.30;;
37483;SDS011;23337;52.212;9.926;2023-03-03T19:30:27;38.80;;;21.70;;
37483;SDS011;23337;52.212;9.926;2023-03-03T19:35:41;41.60;;;22.57;;
37483;SDS011;23337;52.212;9.926;2023-03-03T19:40:50;38.90;;;23.70;;
37483;SDS011;23337;52.212;9.926;2023-03-03T19:43:29;51.63;;;27.17;;